createdAt,value
2023-04-09T00:04:20.283Z,100196.06
2023-04-09T00:14:22.005Z,100191.69
2023-04-09T00:24:23.417Z,100196.56
2023-04-09T00:34:24.802Z,100184.31
2023-04-09T00:44:26.243Z,100184.66
2023-04-09T00:54:27.863Z,100175.59
2023-04-09T01:04:29.295Z,100180.78
2023-04-09T01:14:53.290Z,100177.25
2023-04-09T01:25:04.895Z,100171.06
2023-04-09T01:35:06.447Z,100175.91
2023-04-09T01:45:08.167Z,100168.03
2023-04-09T01:55:09.661Z,100164.00
2023-04-09T02:05:11.077Z,100173.53
2023-04-09T02:15:12.628Z,100163.97
2023-04-09T02:25:14.821Z,100165.16
2023-04-09T02:35:16.312Z,100154.94
2023-04-09T02:45:17.740Z,100146.22
2023-04-09T02:55:19.791Z,100144.34
2023-04-09T03:05:21.457Z,100138.31
2023-04-09T03:15:22.874Z,100137.16
2023-04-09T03:25:24.340Z,100123.44
2023-04-09T03:35:26.110Z,100117.47
2023-04-09T03:45:28.935Z,100120.69
2023-04-09T03:55:30.479Z,100114.13
2023-04-09T04:05:31.887Z,100107.97
2023-04-09T04:15:33.350Z,100114.81
2023-04-09T04:25:34.803Z,100117.28
2023-04-09T04:35:36.379Z,100110.53
2023-04-09T04:45:37.872Z,100111.53
2023-04-09T04:55:39.582Z,100118.78
2023-04-09T05:05:41.015Z,100116.44
2023-04-09T05:15:42.455Z,100119.44
2023-04-09T05:25:44.017Z,100133.53
2023-04-09T05:35:45.980Z,100138.22
2023-04-09T05:45:47.736Z,100139.81
2023-04-09T05:55:49.364Z,100140.94
2023-04-09T06:05:50.875Z,100139.59
2023-04-09T06:15:52.591Z,100132.31
2023-04-09T06:25:54.042Z,100135.31
2023-04-09T06:35:55.649Z,100142.72
2023-04-09T06:45:57.310Z,100146.22
2023-04-09T06:55:58.872Z,100142.34
2023-04-09T07:06:00.787Z,100149.97
2023-04-09T07:16:02.475Z,100173.81
2023-04-09T07:26:04.896Z,100163.50
2023-04-09T07:36:06.774Z,100171.69
2023-04-09T07:46:08.202Z,100164.59
2023-04-09T07:56:09.651Z,100159.44
2023-04-09T08:06:11.069Z,100172.28
2023-04-09T08:16:12.539Z,100166.63
2023-04-09T08:26:14.008Z,100165.13
2023-04-09T08:36:16.003Z,100172.72
2023-04-09T08:46:18.154Z,100171.34
2023-04-09T08:56:21.189Z,100176.81
2023-04-09T09:06:30.046Z,100167.75
2023-04-09T09:16:34.499Z,100172.75
2023-04-09T09:26:37.997Z,100178.69
2023-04-09T09:36:39.668Z,100163.25
2023-04-09T09:46:42.617Z,100150.53
2023-04-09T09:56:44.140Z,100147.13
2023-04-09T10:06:46.068Z,100142.16
2023-04-09T10:16:47.618Z,100141.31
2023-04-09T10:26:49.357Z,100136.91
2023-04-09T10:36:55.762Z,100118.91
2023-04-09T10:46:57.345Z,100123.19
2023-04-09T10:57:07.974Z,100116.69
2023-04-09T11:07:09.426Z,100129.56
2023-04-09T11:17:11.019Z,100107.81
2023-04-09T11:27:12.940Z,100099.09
2023-04-09T11:37:14.704Z,100083.19
2023-04-09T11:47:19.001Z,100091.47
2023-04-09T11:57:20.566Z,100092.66
2023-04-09T12:07:22.193Z,100087.44
2023-04-09T12:17:23.814Z,100085.06
2023-04-09T12:27:25.404Z,100086.63
2023-04-09T12:37:28.586Z,100073.28
2023-04-09T12:47:30.077Z,100070.34
2023-04-09T12:57:31.564Z,100065.09
2023-04-09T13:07:32.982Z,100063.97
2023-04-09T13:17:34.421Z,100051.44
2023-04-09T13:27:36.085Z,100048.88
2023-04-09T13:37:37.575Z,100048.72
2023-04-09T13:47:39.209Z,100048.28
2023-04-09T13:57:41.058Z,100034.50
2023-04-09T14:07:42.502Z,100043.53
2023-04-09T14:17:44.328Z,100032.88
2023-04-09T14:27:46.406Z,100017.47
2023-04-09T14:37:48.209Z,100010.78
2023-04-09T14:47:49.823Z,99998.88
2023-04-09T14:57:52.639Z,100016.25
2023-04-09T15:07:54.667Z,99995.81
2023-04-09T15:17:56.452Z,99996.84
2023-04-09T15:27:58.300Z,99988.25
2023-04-09T15:37:59.858Z,100001.13
2023-04-09T15:48:01.568Z,100013.34
2023-04-09T15:58:03.061Z,99993.00
2023-04-09T16:08:04.479Z,99992.81
2023-04-09T16:18:06.103Z,99991.91
2023-04-09T16:28:08.529Z,99986.50
2023-04-09T16:38:10.186Z,99984.97
2023-04-09T16:48:12.833Z,99992.00
2023-04-09T16:58:14.397Z,99981.31
2023-04-09T17:08:17.155Z,99947.66
2023-04-09T17:18:19.004Z,99930.16
2023-04-09T17:28:20.565Z,99938.03
2023-04-09T17:38:24.682Z,99959.47
2023-04-09T17:48:26.710Z,99957.91
2023-04-09T17:58:28.574Z,99962.88
2023-04-09T18:08:30.164Z,99960.28
2023-04-09T18:18:31.556Z,99957.84
2023-04-09T18:28:33.576Z,99955.03
2023-04-09T18:38:34.994Z,99972.94
2023-04-09T18:48:36.467Z,99968.66
2023-04-09T18:58:38.712Z,99970.88
2023-04-09T19:08:40.986Z,99977.34
2023-04-09T19:18:42.574Z,99977.22
2023-04-09T19:28:44.009Z,99978.41
2023-04-09T19:38:45.499Z,99980.78
2023-04-09T19:48:47.372Z,99962.91
2023-04-09T19:58:48.765Z,99971.13
2023-04-09T20:08:51.252Z,99971.97
2023-04-09T20:18:53.184Z,99978.03
2023-04-09T20:28:55.102Z,99971.19
2023-04-09T20:38:56.798Z,99967.22
2023-04-09T20:48:58.372Z,99961.69
2023-04-09T20:58:59.924Z,99963.50
2023-04-09T21:09:01.364Z,99949.81
2023-04-09T21:19:07.052Z,99938.59
2023-04-09T21:29:08.573Z,99934.38
2023-04-09T21:39:09.985Z,99931.59
2023-04-09T21:49:11.529Z,99940.47
2023-04-09T21:59:13.102Z,99935.66
2023-04-09T22:09:14.676Z,99931.47
2023-04-09T22:19:16.692Z,99925.44
2023-04-09T22:29:18.130Z,99926.78
2023-04-09T22:39:19.665Z,99934.56
2023-04-09T22:49:23.640Z,99949.16
2023-04-09T22:59:33.711Z,99966.09
2023-04-09T23:09:40.810Z,99962.59
2023-04-09T23:19:42.421Z,99959.25
2023-04-09T23:29:44.133Z,99951.19
2023-04-09T23:39:48.473Z,99945.00
2023-04-09T23:49:49.947Z,99930.91
2023-04-09T23:59:51.757Z,99931.94
